Weather at Bacău Airport

Public forecast

Using degrees Celsius for public forecast. Weather courtesy of forecast.io.

Current aviation weather report (METAR) for Bacău Airport

2024/05/28 04:30 (retrieved 39 minutes ago)

LRBC 280430Z 32009KT 9999 -DZ FEW015 SCT030CB BKN038 13/10 Q1017

Closest aviation forecast (TAF) to Bacău Airport

Forecast is more than 6 hours old.

Closest forecast is Sliač Airport, 339.4 nm (628.6 km) WNW.

2024/05/27 18:24 (retrieved 11 hours ago)

TAF TAF LZSL 271630Z 2718/2806 VRB03KT CAVOK TEMPO 2718/2722 9999 SCT045